TimeAST,TemperatureF,Dew PointF,Humidity,Sea Level PressureIn,VisibilityMPH,Wind Direction,Wind SpeedMPH,Gust SpeedMPH,PrecipitationIn,Events,Conditions,WindDirDegrees,DateUTC
12:00 AM,80.6,75.2,84,29.92,-9999.0,East,15.0,-,N/A,,Unknown,80,2013-04-17 04:00:00
1:00 AM,80.6,75.2,84,29.92,-9999.0,East,15.0,-,N/A,,Unknown,80,2013-04-17 05:00:00
2:00 AM,80.6,75.2,84,29.89,-9999.0,East,16.1,-,N/A,,Unknown,80,2013-04-17 06:00:00
3:00 AM,80.6,75.2,84,29.86,-9999.0,East,15.0,-,N/A,,Unknown,80,2013-04-17 07:00:00
4:00 AM,80.6,75.2,84,29.86,-9999.0,East,16.1,-,N/A,,Unknown,80,2013-04-17 08:00:00
5:00 AM,80.6,75.2,84,29.86,-9999.0,East,15.0,-,N/A,,Unknown,80,2013-04-17 09:00:00
6:00 AM,80.6,75.2,84,29.89,-9999.0,East,12.7,-,N/A,,Unknown,90,2013-04-17 10:00:00
7:00 AM,80.6,75.2,84,29.89,-9999.0,East,15.0,-,N/A,,Unknown,90,2013-04-17 11:00:00
8:00 AM,82.4,75.2,79,29.92,-9999.0,East,17.3,-,N/A,,Unknown,90,2013-04-17 12:00:00
10:00 AM,84.2,75.2,74,29.89,6.2,ENE,24.2,-,N/A,,Scattered Clouds,70,2013-04-17 14:00:00
11:00 AM,85,76,67,29.89,16,East,24.2,,,,Partly Cloudy,80,2013-04-17 15:00:00
11:00 AM,86.0,75.2,70,29.89,6.2,East,24.2,-,N/A,,Scattered Clouds,80,2013-04-17 15:00:00
12:00 PM,86.0,75.2,70,29.89,-9999.0,East,23.0,-,N/A,,Unknown,90,2013-04-17 16:00:00
1:00 PM,86.0,75.2,70,29.86,6.2,ENE,23.0,-,N/A,,Mostly Cloudy,70,2013-04-17 17:00:00
2:00 PM,86,75,63,,6,East,21.9,,,,Clear,90,2013-04-17 18:00:00
2:00 PM,86.0,75.2,70,29.86,6.2,East,21.9,-,N/A,,Scattered Clouds,90,2013-04-17 18:00:00
3:00 PM,86.0,75.2,70,29.83,6.2,East,20.7,-,N/A,,Scattered Clouds,90,2013-04-17 19:00:00
5:00 PM,84,74,66,29.79,16,ENE,23.0,,,,Partly Cloudy,70,2013-04-17 21:00:00
5:00 PM,84.2,75.2,74,29.80,6.2,East,18.4,-,N/A,,Scattered Clouds,80,2013-04-17 21:00:00
6:00 PM,82.4,73.4,74,29.83,6.2,East,17.3,-,N/A,,Scattered Clouds,80,2013-04-17 22:00:00
7:00 PM,80.6,73.4,79,29.86,6.2,East,17.3,-,N/A,,Scattered Clouds,80,2013-04-17 23:00:00
8:00 PM,81,74,75,29.85,12,ENE,19.6,,,,Haze,70,2013-04-18 00:00:00
8:00 PM,80.6,75.2,84,29.86,6.2,East,16.1,-,N/A,,Scattered Clouds,80,2013-04-18 00:00:00
9:00 PM,80.6,75.2,84,29.89,6.2,ENE,15.0,-,N/A,,Scattered Clouds,70,2013-04-18 01:00:00
10:00 PM,80.6,75.2,84,29.89,6.2,East,16.1,-,N/A,,Scattered Clouds,80,2013-04-18 02:00:00
11:00 PM,80,75,81,,6,East,15.0,,,,Clear,80,2013-04-18 03:00:00
11:00 PM,80.6,75.2,84,29.92,-9999.0,East,15.0,-,N/A,,Unknown,80,2013-04-18 03:00:00